sensor_id;sensor_type;location;lat;lon;timestamp;pressure;altitude;pressure_sealevel;temperature;humidity
37200;BME280;23096;50.892;16.746;2023-02-03T00:00:47;99990.20;;;-0.59;72.21
37200;BME280;23096;50.892;16.746;2023-02-03T00:03:13;99987.06;;;-0.55;72.19
37200;BME280;23096;50.892;16.746;2023-02-03T00:05:38;99993.07;;;-0.52;72.25
37200;BME280;23096;50.892;16.746;2023-02-03T00:08:04;99999.90;;;-0.49;72.31
37200;BME280;23096;50.892;16.746;2023-02-03T00:10:35;99998.09;;;-0.46;72.31
37200;BME280;23096;50.892;16.746;2023-02-03T00:13:02;99998.70;;;-0.43;72.37
37200;BME280;23096;50.892;16.746;2023-02-03T00:15:27;99996.40;;;-0.40;72.39
37200;BME280;23096;50.892;16.746;2023-02-03T00:17:53;99996.77;;;-0.39;72.31
37200;BME280;23096;50.892;16.746;2023-02-03T00:20:18;99993.91;;;-0.39;72.37
37200;BME280;23096;50.892;16.746;2023-02-03T00:22:44;99988.02;;;-0.38;72.41
37200;BME280;23096;50.892;16.746;2023-02-03T00:25:09;99983.14;;;-0.37;72.57
37200;BME280;23096;50.892;16.746;2023-02-03T00:27:35;99984.67;;;-0.36;72.50
37200;BME280;23096;50.892;16.746;2023-02-03T00:30:00;99979.80;;;-0.35;72.50
37200;BME280;23096;50.892;16.746;2023-02-03T00:32:26;99973.08;;;-0.34;72.49
37200;BME280;23096;50.892;16.746;2023-02-03T00:34:52;99974.62;;;-0.33;72.47
37200;BME280;23096;50.892;16.746;2023-02-03T00:37:17;99969.19;;;-0.34;72.35
37200;BME280;23096;50.892;16.746;2023-02-03T00:39:43;99967.31;;;-0.35;72.48
37200;BME280;23096;50.892;16.746;2023-02-03T00:42:08;99966.82;;;-0.35;72.56
37200;BME280;23096;50.892;16.746;2023-02-03T00:44:34;99961.27;;;-0.34;72.51
37200;BME280;23096;50.892;16.746;2023-02-03T00:46:59;99964.66;;;-0.33;72.54
37200;BME280;23096;50.892;16.746;2023-02-03T00:49:24;99965.02;;;-0.32;72.52
37200;BME280;23096;50.892;16.746;2023-02-03T00:51:50;99965.55;;;-0.31;72.52
37200;BME280;23096;50.892;16.746;2023-02-03T00:54:15;99966.95;;;-0.29;72.58
37200;BME280;23096;50.892;16.746;2023-02-03T00:56:41;99966.30;;;-0.28;72.51
37200;BME280;23096;50.892;16.746;2023-02-03T00:59:06;99965.79;;;-0.28;72.44
37200;BME280;23096;50.892;16.746;2023-02-03T01:01:32;99960.54;;;-0.29;72.35
37200;BME280;23096;50.892;16.746;2023-02-03T01:03:58;99957.77;;;-0.32;72.24
37200;BME280;23096;50.892;16.746;2023-02-03T01:06:24;99953.49;;;-0.34;72.27
37200;BME280;23096;50.892;16.746;2023-02-03T01:08:51;99947.85;;;-0.37;72.22
37200;BME280;23096;50.892;16.746;2023-02-03T01:11:18;99945.70;;;-0.42;72.19
37200;BME280;23096;50.892;16.746;2023-02-03T01:13:43;99939.40;;;-0.45;72.26
37200;BME280;23096;50.892;16.746;2023-02-03T01:16:10;99938.08;;;-0.43;72.17
37200;BME280;23096;50.892;16.746;2023-02-03T01:18:36;99933.34;;;-0.44;72.24
37200;BME280;23096;50.892;16.746;2023-02-03T01:21:11;99930.52;;;-0.42;72.24
37200;BME280;23096;50.892;16.746;2023-02-03T01:23:38;99928.64;;;-0.43;72.23
37200;BME280;23096;50.892;16.746;2023-02-03T01:26:04;99917.66;;;-0.43;72.24
37200;BME280;23096;50.892;16.746;2023-02-03T01:28:30;99916.02;;;-0.40;72.36
37200;BME280;23096;50.892;16.746;2023-02-03T01:30:55;99906.85;;;-0.36;72.42
37200;BME280;23096;50.892;16.746;2023-02-03T01:33:21;99902.27;;;-0.29;72.59
37200;BME280;23096;50.892;16.746;2023-02-03T01:35:47;99893.53;;;-0.20;72.63
37200;BME280;23096;50.892;16.746;2023-02-03T01:38:13;99891.84;;;-0.13;72.66
37200;BME280;23096;50.892;16.746;2023-02-03T01:40:42;99887.70;;;-0.08;72.58
37200;BME280;23096;50.892;16.746;2023-02-03T01:43:09;99882.35;;;-0.06;72.54
37200;BME280;23096;50.892;16.746;2023-02-03T01:45:34;99880.85;;;-0.04;72.51
37200;BME280;23096;50.892;16.746;2023-02-03T01:47:59;99874.66;;;-0.02;72.44
37200;BME280;23096;50.892;16.746;2023-02-03T01:50:32;99867.59;;;-0.01;72.48
37200;BME280;23096;50.892;16.746;2023-02-03T01:52:59;99864.58;;;0.00;72.45
37200;BME280;23096;50.892;16.746;2023-02-03T01:55:27;99863.54;;;-0.01;72.43
37200;BME280;23096;50.892;16.746;2023-02-03T01:58:06;99851.69;;;-0.02;72.38
37200;BME280;23096;50.892;16.746;2023-02-03T02:00:33;99839.82;;;-0.04;72.34
37200;BME280;23096;50.892;16.746;2023-02-03T02:02:58;99824.09;;;-0.05;72.42
37200;BME280;23096;50.892;16.746;2023-02-03T02:05:31;99815.20;;;-0.03;72.47
37200;BME280;23096;50.892;16.746;2023-02-03T02:07:58;99801.15;;;0.05;72.61
37200;BME280;23096;50.892;16.746;2023-02-03T02:10:24;99789.14;;;0.13;72.63
37200;BME280;23096;50.892;16.746;2023-02-03T02:12:55;99780.86;;;0.23;72.65
37200;BME280;23096;50.892;16.746;2023-02-03T02:15:22;99779.11;;;0.29;72.56
37200;BME280;23096;50.892;16.746;2023-02-03T02:20:37;99764.14;;;0.42;72.61
37200;BME280;23096;50.892;16.746;2023-02-03T02:30:48;99781.46;;;0.57;72.31
37200;BME280;23096;50.892;16.746;2023-02-03T02:36:11;99777.71;;;0.54;72.12
37200;BME280;23096;50.892;16.746;2023-02-03T02:38:44;99776.77;;;0.50;72.02
37200;BME280;23096;50.892;16.746;2023-02-03T02:41:14;99770.11;;;0.46;72.06
37200;BME280;23096;50.892;16.746;2023-02-03T02:43:42;99766.46;;;0.40;72.02
37200;BME280;23096;50.892;16.746;2023-02-03T02:46:18;99772.13;;;0.35;72.02
37200;BME280;23096;50.892;16.746;2023-02-03T02:48:51;99761.63;;;0.34;71.99
37200;BME280;23096;50.892;16.746;2023-02-03T02:51:18;99747.25;;;0.33;72.00
37200;BME280;23096;50.892;16.746;2023-02-03T02:53:49;99740.15;;;0.33;72.03
37200;BME280;23096;50.892;16.746;2023-02-03T02:56:15;99733.39;;;0.33;71.97
37200;BME280;23096;50.892;16.746;2023-02-03T02:58:43;99724.23;;;0.31;71.88
37200;BME280;23096;50.892;16.746;2023-02-03T03:01:11;99715.40;;;0.29;71.88
37200;BME280;23096;50.892;16.746;2023-02-03T03:03:37;99712.38;;;0.31;71.92
37200;BME280;23096;50.892;16.746;2023-02-03T03:06:24;99704.63;;;0.31;72.00
37200;BME280;23096;50.892;16.746;2023-02-03T03:11:20;99695.27;;;0.39;71.97
37200;BME280;23096;50.892;16.746;2023-02-03T03:13:53;99693.45;;;0.41;71.95
37200;BME280;23096;50.892;16.746;2023-02-03T03:16:24;99688.27;;;0.45;71.99
37200;BME280;23096;50.892;16.746;2023-02-03T03:18:55;99688.14;;;0.46;71.88
37200;BME280;23096;50.892;16.746;2023-02-03T03:21:23;99680.52;;;0.46;71.92
37200;BME280;23096;50.892;16.746;2023-02-03T03:23:50;99671.98;;;0.51;72.02
37200;BME280;23096;50.892;16.746;2023-02-03T03:29:19;99675.30;;;0.69;72.20
37200;BME280;23096;50.892;16.746;2023-02-03T03:31:46;99673.43;;;0.80;72.29
37200;BME280;23096;50.892;16.746;2023-02-03T03:34:12;99665.80;;;0.90;72.25
37200;BME280;23096;50.892;16.746;2023-02-03T03:39:09;99659.44;;;1.08;72.22
37200;BME280;23096;50.892;16.746;2023-02-03T03:44:11;99649.04;;;1.29;72.21
37200;BME280;23096;50.892;16.746;2023-02-03T03:46:39;99645.23;;;1.37;72.16
37200;BME280;23096;50.892;16.746;2023-02-03T03:49:07;99642.27;;;1.44;72.12
37200;BME280;23096;50.892;16.746;2023-02-03T03:51:47;99636.55;;;1.48;72.08
37200;BME280;23096;50.892;16.746;2023-02-03T03:54:15;99629.83;;;1.52;72.01
37200;BME280;23096;50.892;16.746;2023-02-03T03:59:19;99619.65;;;1.68;72.06
37200;BME280;23096;50.892;16.746;2023-02-03T04:01:47;99618.88;;;1.74;71.96
37200;BME280;23096;50.892;16.746;2023-02-03T04:04:13;99618.92;;;1.79;71.92
37200;BME280;23096;50.892;16.746;2023-02-03T04:06:39;99615.73;;;1.82;71.77
37200;BME280;23096;50.892;16.746;2023-02-03T04:09:05;99609.47;;;1.83;71.60
37200;BME280;23096;50.892;16.746;2023-02-03T04:11:30;99605.69;;;1.77;71.35
37200;BME280;23096;50.892;16.746;2023-02-03T04:14:15;99603.91;;;1.67;71.17
37200;BME280;23096;50.892;16.746;2023-02-03T04:16:40;99603.45;;;1.56;71.06
37200;BME280;23096;50.892;16.746;2023-02-03T04:19:06;99600.97;;;1.46;71.01
37200;BME280;23096;50.892;16.746;2023-02-03T04:21:31;99599.88;;;1.39;70.91
37200;BME280;23096;50.892;16.746;2023-02-03T04:23:56;99598.43;;;1.31;70.89
37200;BME280;23096;50.892;16.746;2023-02-03T04:26:22;99593.65;;;1.27;70.94
37200;BME280;23096;50.892;16.746;2023-02-03T04:28:47;99590.27;;;1.27;71.06
37200;BME280;23096;50.892;16.746;2023-02-03T04:31:13;99586.46;;;1.34;71.23
37200;BME280;23096;50.892;16.746;2023-02-03T04:33:41;99586.55;;;1.43;71.25
37200;BME280;23096;50.892;16.746;2023-02-03T04:36:07;99579.38;;;1.53;71.23
37200;BME280;23096;50.892;16.746;2023-02-03T04:38:32;99578.81;;;1.64;71.20
37200;BME280;23096;50.892;16.746;2023-02-03T04:40:58;99568.56;;;1.74;71.10
37200;BME280;23096;50.892;16.746;2023-02-03T04:43:23;99566.09;;;1.82;71.04
37200;BME280;23096;50.892;16.746;2023-02-03T04:45:49;99560.59;;;1.92;70.98
37200;BME280;23096;50.892;16.746;2023-02-03T04:48:14;99557.61;;;2.01;70.95
37200;BME280;23096;50.892;16.746;2023-02-03T04:50:39;99563.76;;;2.07;70.87
37200;BME280;23096;50.892;16.746;2023-02-03T04:53:05;99570.92;;;2.13;70.84
37200;BME280;23096;50.892;16.746;2023-02-03T04:55:30;99568.59;;;2.20;70.80
37200;BME280;23096;50.892;16.746;2023-02-03T04:57:56;99568.80;;;2.24;70.72
37200;BME280;23096;50.892;16.746;2023-02-03T05:00:22;99563.21;;;2.27;70.57
37200;BME280;23096;50.892;16.746;2023-02-03T05:02:47;99560.01;;;2.29;70.49
37200;BME280;23096;50.892;16.746;2023-02-03T05:05:13;99554.41;;;2.28;70.46
37200;BME280;23096;50.892;16.746;2023-02-03T05:07:38;99550.33;;;2.26;70.31
37200;BME280;23096;50.892;16.746;2023-02-03T05:10:04;99553.00;;;2.22;70.22
37200;BME280;23096;50.892;16.746;2023-02-03T05:12:29;99555.33;;;2.14;70.08
37200;BME280;23096;50.892;16.746;2023-02-03T05:14:55;99551.02;;;2.05;70.02
37200;BME280;23096;50.892;16.746;2023-02-03T05:17:20;99548.75;;;1.94;70.03
37200;BME280;23096;50.892;16.746;2023-02-03T05:19:46;99541.86;;;1.81;70.04
37200;BME280;23096;50.892;16.746;2023-02-03T05:22:11;99536.87;;;1.70;70.05
37200;BME280;23096;50.892;16.746;2023-02-03T05:24:36;99533.06;;;1.62;70.16
37200;BME280;23096;50.892;16.746;2023-02-03T05:27:02;99523.82;;;1.52;70.16
37200;BME280;23096;50.892;16.746;2023-02-03T05:29:27;99516.98;;;1.44;70.28
37200;BME280;23096;50.892;16.746;2023-02-03T05:31:53;99509.98;;;1.39;70.34
37200;BME280;23096;50.892;16.746;2023-02-03T05:34:18;99508.40;;;1.33;70.39
37200;BME280;23096;50.892;16.746;2023-02-03T05:36:43;99506.32;;;1.27;70.57
37200;BME280;23096;50.892;16.746;2023-02-03T05:39:09;99504.25;;;1.23;70.69
37200;BME280;23096;50.892;16.746;2023-02-03T05:41:34;99500.52;;;1.22;70.80
37200;BME280;23096;50.892;16.746;2023-02-03T05:44:19;99493.55;;;1.19;70.96
37200;BME280;23096;50.892;16.746;2023-02-03T05:46:45;99485.93;;;1.18;70.97
37200;BME280;23096;50.892;16.746;2023-02-03T05:49:10;99478.48;;;1.17;71.04
37200;BME280;23096;50.892;16.746;2023-02-03T05:51:36;99474.55;;;1.15;71.03
37200;BME280;23096;50.892;16.746;2023-02-03T05:54:02;99464.88;;;1.12;71.10
37200;BME280;23096;50.892;16.746;2023-02-03T05:56:27;99455.22;;;1.10;71.26
37200;BME280;23096;50.892;16.746;2023-02-03T05:58:53;99449.45;;;1.08;71.21
37200;BME280;23096;50.892;16.746;2023-02-03T06:01:18;99443.01;;;1.07;71.35
37200;BME280;23096;50.892;16.746;2023-02-03T06:03:44;99440.96;;;1.05;71.35
37200;BME280;23096;50.892;16.746;2023-02-03T06:06:09;99430.27;;;1.01;71.38
37200;BME280;23096;50.892;16.746;2023-02-03T06:08:35;99425.48;;;0.97;71.40
37200;BME280;23096;50.892;16.746;2023-02-03T06:11:00;99417.98;;;0.91;71.39
37200;BME280;23096;50.892;16.746;2023-02-03T06:13:26;99411.34;;;0.86;71.42
37200;BME280;23096;50.892;16.746;2023-02-03T06:15:52;99407.92;;;0.82;71.43
37200;BME280;23096;50.892;16.746;2023-02-03T06:18:17;99398.39;;;0.77;71.53
37200;BME280;23096;50.892;16.746;2023-02-03T06:20:42;99397.84;;;0.73;71.59
37200;BME280;23096;50.892;16.746;2023-02-03T06:23:08;99394.73;;;0.68;71.56
37200;BME280;23096;50.892;16.746;2023-02-03T06:25:33;99394.53;;;0.64;71.64
37200;BME280;23096;50.892;16.746;2023-02-03T06:27:58;99389.27;;;0.61;71.72
37200;BME280;23096;50.892;16.746;2023-02-03T06:30:24;99387.89;;;0.58;71.75
37200;BME280;23096;50.892;16.746;2023-02-03T06:32:49;99383.45;;;0.55;71.79
37200;BME280;23096;50.892;16.746;2023-02-03T06:35:15;99370.05;;;0.51;71.85
37200;BME280;23096;50.892;16.746;2023-02-03T06:37:44;99366.48;;;0.48;71.93
37200;BME280;23096;50.892;16.746;2023-02-03T06:40:10;99363.90;;;0.45;71.92
37200;BME280;23096;50.892;16.746;2023-02-03T06:42:35;99356.95;;;0.43;71.94
37200;BME280;23096;50.892;16.746;2023-02-03T06:45:01;99352.20;;;0.41;72.02
37200;BME280;23096;50.892;16.746;2023-02-03T06:47:26;99344.05;;;0.38;72.02
37200;BME280;23096;50.892;16.746;2023-02-03T06:49:52;99338.45;;;0.36;72.10
37200;BME280;23096;50.892;16.746;2023-02-03T06:52:17;99325.43;;;0.34;72.18
37200;BME280;23096;50.892;16.746;2023-02-03T06:54:43;99313.06;;;0.32;72.18
37200;BME280;23096;50.892;16.746;2023-02-03T06:57:08;99305.09;;;0.30;72.23
37200;BME280;23096;50.892;16.746;2023-02-03T06:59:34;99300.19;;;0.29;72.32
37200;BME280;23096;50.892;16.746;2023-02-03T07:01:59;99290.71;;;0.27;72.37
37200;BME280;23096;50.892;16.746;2023-02-03T07:04:24;99291.70;;;0.26;72.37
37200;BME280;23096;50.892;16.746;2023-02-03T07:06:54;99280.20;;;0.23;72.33
37200;BME280;23096;50.892;16.746;2023-02-03T07:09:20;99270.70;;;0.21;72.38
37200;BME280;23096;50.892;16.746;2023-02-03T07:11:45;99264.95;;;0.19;72.49
37200;BME280;23096;50.892;16.746;2023-02-03T07:14:10;99254.97;;;0.18;72.48
37200;BME280;23096;50.892;16.746;2023-02-03T07:16:36;99258.02;;;0.18;72.62
37200;BME280;23096;50.892;16.746;2023-02-03T07:19:02;99236.39;;;0.18;72.64
37200;BME280;23096;50.892;16.746;2023-02-03T07:21:28;99229.30;;;0.20;72.77
37200;BME280;23096;50.892;16.746;2023-02-03T07:23:53;99219.02;;;0.23;72.83
37200;BME280;23096;50.892;16.746;2023-02-03T07:26:19;99212.95;;;0.25;72.97
37200;BME280;23096;50.892;16.746;2023-02-03T07:28:47;99196.92;;;0.27;73.01
37200;BME280;23096;50.892;16.746;2023-02-03T07:31:12;99192.38;;;0.30;73.08
37200;BME280;23096;50.892;16.746;2023-02-03T07:33:38;99189.55;;;0.33;73.19
37200;BME280;23096;50.892;16.746;2023-02-03T07:36:04;99178.92;;;0.36;73.30
37200;BME280;23096;50.892;16.746;2023-02-03T07:38:29;99168.19;;;0.46;73.72
37200;BME280;23096;50.892;16.746;2023-02-03T07:40:55;99169.34;;;0.66;73.97
37200;BME280;23096;50.892;16.746;2023-02-03T07:43:21;99163.91;;;0.89;74.33
37200;BME280;23096;50.892;16.746;2023-02-03T07:45:47;99153.89;;;1.14;74.44
37200;BME280;23096;50.892;16.746;2023-02-03T07:48:13;99137.55;;;1.30;74.48
37200;BME280;23096;50.892;16.746;2023-02-03T07:50:39;99139.45;;;1.39;74.46
37200;BME280;23096;50.892;16.746;2023-02-03T07:53:05;99127.98;;;1.53;74.74
37200;BME280;23096;50.892;16.746;2023-02-03T07:55:33;99125.14;;;1.71;74.96
37200;BME280;23096;50.892;16.746;2023-02-03T07:57:58;99105.86;;;1.88;75.04
37200;BME280;23096;50.892;16.746;2023-02-03T08:00:24;99100.09;;;2.03;75.10
37200;BME280;23096;50.892;16.746;2023-02-03T08:02:49;99088.23;;;2.16;75.25
37200;BME280;23096;50.892;16.746;2023-02-03T08:05:15;99091.28;;;2.25;75.25
37200;BME280;23096;50.892;16.746;2023-02-03T08:07:41;99090.42;;;2.34;75.32
37200;BME280;23096;50.892;16.746;2023-02-03T08:10:07;99090.09;;;2.41;75.35
37200;BME280;23096;50.892;16.746;2023-02-03T08:12:33;99089.73;;;2.49;75.54
37200;BME280;23096;50.892;16.746;2023-02-03T08:14:58;99088.01;;;2.59;75.62
37200;BME280;23096;50.892;16.746;2023-02-03T08:17:24;99077.30;;;2.70;75.65
37200;BME280;23096;50.892;16.746;2023-02-03T08:19:49;99077.45;;;2.80;75.67
37200;BME280;23096;50.892;16.746;2023-02-03T08:22:15;99069.11;;;2.85;75.65
37200;BME280;23096;50.892;16.746;2023-02-03T08:24:44;99064.36;;;2.88;75.70
37200;BME280;23096;50.892;16.746;2023-02-03T08:27:11;99056.03;;;2.91;75.75
37200;BME280;23096;50.892;16.746;2023-02-03T08:29:36;99051.07;;;2.98;75.90
37200;BME280;23096;50.892;16.746;2023-02-03T08:32:02;99046.80;;;3.05;75.91
37200;BME280;23096;50.892;16.746;2023-02-03T08:34:27;99039.84;;;3.08;75.84
37200;BME280;23096;50.892;16.746;2023-02-03T08:36:53;99038.46;;;3.11;75.88
37200;BME280;23096;50.892;16.746;2023-02-03T08:39:18;99032.84;;;3.14;75.96
37200;BME280;23096;50.892;16.746;2023-02-03T08:41:44;99036.25;;;3.13;75.86
37200;BME280;23096;50.892;16.746;2023-02-03T08:44:09;99036.58;;;3.16;76.09
37200;BME280;23096;50.892;16.746;2023-02-03T08:46:35;99029.91;;;3.22;76.21
37200;BME280;23096;50.892;16.746;2023-02-03T08:49:00;99026.65;;;3.28;76.19
37200;BME280;23096;50.892;16.746;2023-02-03T08:51:27;99018.98;;;3.31;76.18
37200;BME280;23096;50.892;16.746;2023-02-03T08:53:52;99014.02;;;3.36;76.19
37200;BME280;23096;50.892;16.746;2023-02-03T08:56:17;99009.09;;;3.40;76.20
37200;BME280;23096;50.892;16.746;2023-02-03T08:58:43;99003.98;;;3.43;76.20
37200;BME280;23096;50.892;16.746;2023-02-03T09:01:09;98998.89;;;3.43;76.05
37200;BME280;23096;50.892;16.746;2023-02-03T09:03:35;98990.55;;;3.45;76.16
37200;BME280;23096;50.892;16.746;2023-02-03T09:06:01;98990.38;;;3.47;76.14
37200;BME280;23096;50.892;16.746;2023-02-03T09:08:26;98977.29;;;3.48;76.26
37200;BME280;23096;50.892;16.746;2023-02-03T09:10:52;98979.48;;;3.50;76.17
37200;BME280;23096;50.892;16.746;2023-02-03T09:13:17;98970.47;;;3.51;76.17
37200;BME280;23096;50.892;16.746;2023-02-03T09:15:43;98963.84;;;3.52;76.27
37200;BME280;23096;50.892;16.746;2023-02-03T09:18:08;98958.39;;;3.54;76.17
37200;BME280;23096;50.892;16.746;2023-02-03T09:20:34;98961.95;;;3.54;76.12
37200;BME280;23096;50.892;16.746;2023-02-03T09:23:00;98959.23;;;3.54;76.22
37200;BME280;23096;50.892;16.746;2023-02-03T09:25:25;98957.02;;;3.54;76.36
37200;BME280;23096;50.892;16.746;2023-02-03T09:27:51;98951.08;;;3.53;76.24
37200;BME280;23096;50.892;16.746;2023-02-03T09:30:16;98942.26;;;3.52;76.28
37200;BME280;23096;50.892;16.746;2023-02-03T09:32:42;98945.33;;;3.51;76.28
37200;BME280;23096;50.892;16.746;2023-02-03T09:35:10;98935.99;;;3.50;76.25
37200;BME280;23096;50.892;16.746;2023-02-03T09:37:36;98926.66;;;3.50;76.39
37200;BME280;23096;50.892;16.746;2023-02-03T09:40:01;98918.99;;;3.52;76.34
37200;BME280;23096;50.892;16.746;2023-02-03T09:42:42;98923.39;;;3.55;76.38
37200;BME280;23096;50.892;16.746;2023-02-03T09:45:25;98914.70;;;3.57;76.42
37200;BME280;23096;50.892;16.746;2023-02-03T09:47:51;98901.10;;;3.58;76.49
37200;BME280;23096;50.892;16.746;2023-02-03T09:50:26;98894.81;;;3.58;76.45
37200;BME280;23096;50.892;16.746;2023-02-03T09:52:53;98893.60;;;3.60;76.55
37200;BME280;23096;50.892;16.746;2023-02-03T09:55:38;98887.64;;;3.63;76.58
37200;BME280;23096;50.892;16.746;2023-02-03T09:58:07;98881.15;;;3.67;76.55
37200;BME280;23096;50.892;16.746;2023-02-03T10:08:21;98867.73;;;3.84;76.64
37200;BME280;23096;50.892;16.746;2023-02-03T10:13:41;98847.68;;;3.83;76.73
37200;BME280;23096;50.892;16.746;2023-02-03T10:18:50;98828.94;;;3.87;76.67
37200;BME280;23096;50.892;16.746;2023-02-03T10:21:24;98827.41;;;3.88;76.67
37200;BME280;23096;50.892;16.746;2023-02-03T10:23:54;98814.65;;;3.90;76.73
37200;BME280;23096;50.892;16.746;2023-02-03T10:26:24;98800.88;;;3.91;76.72
37200;BME280;23096;50.892;16.746;2023-02-03T10:28:53;98782.52;;;3.91;76.67
37200;BME280;23096;50.892;16.746;2023-02-03T10:31:20;98785.27;;;3.88;76.58
37200;BME280;23096;50.892;16.746;2023-02-03T10:33:47;98776.44;;;3.87;76.65
37200;BME280;23096;50.892;16.746;2023-02-03T10:36:21;98766.23;;;3.88;76.73
37200;BME280;23096;50.892;16.746;2023-02-03T10:41:19;98751.67;;;3.97;76.90
37200;BME280;23096;50.892;16.746;2023-02-03T10:43:45;98743.64;;;4.00;76.82
37200;BME280;23096;50.892;16.746;2023-02-03T10:46:18;98727.98;;;4.03;76.95
37200;BME280;23096;50.892;16.746;2023-02-03T10:48:45;98718.26;;;4.05;77.11
37200;BME280;23096;50.892;16.746;2023-02-03T10:51:15;98706.54;;;4.04;76.85
37200;BME280;23096;50.892;16.746;2023-02-03T10:53:42;98709.77;;;4.04;76.93
37200;BME280;23096;50.892;16.746;2023-02-03T10:56:15;98704.14;;;4.07;77.13
37200;BME280;23096;50.892;16.746;2023-02-03T10:58:49;98689.01;;;4.07;76.94
37200;BME280;23096;50.892;16.746;2023-02-03T11:01:16;98677.43;;;4.08;77.02
37200;BME280;23096;50.892;16.746;2023-02-03T11:06:34;98665.05;;;4.06;76.98
37200;BME280;23096;50.892;16.746;2023-02-03T11:09:00;98659.98;;;4.03;76.92
37200;BME280;23096;50.892;16.746;2023-02-03T11:11:28;98649.30;;;4.02;77.06
37200;BME280;23096;50.892;16.746;2023-02-03T11:16:27;98631.12;;;4.01;76.99
37200;BME280;23096;50.892;16.746;2023-02-03T11:24:25;98609.85;;;4.03;77.17
37200;BME280;23096;50.892;16.746;2023-02-03T11:26:59;98605.41;;;4.04;77.10
37200;BME280;23096;50.892;16.746;2023-02-03T11:29:32;98596.55;;;4.05;77.19
37200;BME280;23096;50.892;16.746;2023-02-03T11:32:00;98589.05;;;4.07;77.18
37200;BME280;23096;50.892;16.746;2023-02-03T11:34:27;98579.83;;;4.09;77.22
37200;BME280;23096;50.892;16.746;2023-02-03T11:36:55;98575.90;;;4.11;77.24
37200;BME280;23096;50.892;16.746;2023-02-03T11:39:27;98581.33;;;4.12;77.30
37200;BME280;23096;50.892;16.746;2023-02-03T11:41:53;98572.45;;;4.13;77.24
37200;BME280;23096;50.892;16.746;2023-02-03T11:44:23;98571.59;;;4.14;77.31
37200;BME280;23096;50.892;16.746;2023-02-03T11:46:52;98564.41;;;4.16;77.34
37200;BME280;23096;50.892;16.746;2023-02-03T11:52:40;98555.67;;;4.21;77.35
37200;BME280;23096;50.892;16.746;2023-02-03T11:54:52;98548.98;;;4.25;77.39
37200;BME280;23096;50.892;16.746;2023-02-03T11:57:58;98536.98;;;4.30;77.38
37200;BME280;23096;50.892;16.746;2023-02-03T12:08:07;98513.23;;;4.36;77.25
37200;BME280;23096;50.892;16.746;2023-02-03T12:26:05;98493.83;;;4.46;77.29
37200;BME280;23096;50.892;16.746;2023-02-03T12:31:17;98495.42;;;4.51;77.39
37200;BME280;23096;50.892;16.746;2023-02-03T12:33:50;98484.63;;;4.56;77.29
37200;BME280;23096;50.892;16.746;2023-02-03T12:36:39;98479.60;;;4.61;77.32
37200;BME280;23096;50.892;16.746;2023-02-03T12:41:44;98475.33;;;4.69;77.37
37200;BME280;23096;50.892;16.746;2023-02-03T12:44:14;98465.24;;;4.73;77.30
37200;BME280;23096;50.892;16.746;2023-02-03T12:46:43;98458.70;;;4.76;77.43
37200;BME280;23096;50.892;16.746;2023-02-03T12:49:27;98438.16;;;4.82;77.55
37200;BME280;23096;50.892;16.746;2023-02-03T12:54:55;98442.67;;;4.94;77.54
37200;BME280;23096;50.892;16.746;2023-02-03T12:57:25;98434.39;;;4.99;77.56
37200;BME280;23096;50.892;16.746;2023-02-03T12:59:58;98427.80;;;5.05;77.74
37200;BME280;23096;50.892;16.746;2023-02-03T13:02:28;98421.20;;;5.10;77.77
37200;BME280;23096;50.892;16.746;2023-02-03T13:05:00;98410.88;;;5.15;77.70
37200;BME280;23096;50.892;16.746;2023-02-03T13:07:35;98403.45;;;5.20;77.65
37200;BME280;23096;50.892;16.746;2023-02-03T13:10:04;98399.45;;;5.23;77.57
37200;BME280;23096;50.892;16.746;2023-02-03T13:12:38;98397.70;;;5.25;77.59
37200;BME280;23096;50.892;16.746;2023-02-03T13:15:19;98398.98;;;5.28;77.61
37200;BME280;23096;50.892;16.746;2023-02-03T13:17:57;98392.97;;;5.31;77.57
37200;BME280;23096;50.892;16.746;2023-02-03T13:20:26;98389.16;;;5.33;77.77
37200;BME280;23096;50.892;16.746;2023-02-03T13:22:55;98380.39;;;5.37;77.73
37200;BME280;23096;50.892;16.746;2023-02-03T13:28:23;98377.45;;;5.46;77.81
37200;BME280;23096;50.892;16.746;2023-02-03T13:31:04;98379.70;;;5.51;77.75
37200;BME280;23096;50.892;16.746;2023-02-03T13:43:46;98427.14;;;5.62;77.83
37200;BME280;23096;50.892;16.746;2023-02-03T13:46:21;98457.20;;;5.58;77.82
37200;BME280;23096;50.892;16.746;2023-02-03T13:48:48;98473.14;;;5.54;77.89
37200;BME280;23096;50.892;16.746;2023-02-03T13:54:25;98500.98;;;5.44;77.97
37200;BME280;23096;50.892;16.746;2023-02-03T13:56:52;98492.38;;;5.33;77.84
37200;BME280;23096;50.892;16.746;2023-02-03T14:10:04;98489.15;;;5.02;77.96
37200;BME280;23096;50.892;16.746;2023-02-03T14:12:31;98505.94;;;4.97;77.90
37200;BME280;23096;50.892;16.746;2023-02-03T14:14:58;98497.33;;;4.92;77.92
37200;BME280;23096;50.892;16.746;2023-02-03T14:20:07;98502.03;;;4.79;77.88
37200;BME280;23096;50.892;16.746;2023-02-03T14:22:48;98510.84;;;4.72;77.96
37200;BME280;23096;50.892;16.746;2023-02-03T14:25:14;98501.40;;;4.68;77.83
37200;BME280;23096;50.892;16.746;2023-02-03T14:27:43;98510.84;;;4.64;77.91
37200;BME280;23096;50.892;16.746;2023-02-03T14:30:09;98514.48;;;4.60;77.77
37200;BME280;23096;50.892;16.746;2023-02-03T14:32:53;98520.66;;;4.57;77.87
37200;BME280;23096;50.892;16.746;2023-02-03T14:35:37;98524.59;;;4.56;77.93
37200;BME280;23096;50.892;16.746;2023-02-03T14:38:10;98526.64;;;4.56;77.96
37200;BME280;23096;50.892;16.746;2023-02-03T14:56:12;98556.85;;;4.60;78.00
37200;BME280;23096;50.892;16.746;2023-02-03T14:58:43;98551.36;;;4.62;77.84
37200;BME280;23096;50.892;16.746;2023-02-03T15:01:26;98546.38;;;4.65;77.91
37200;BME280;23096;50.892;16.746;2023-02-03T15:06:37;98533.48;;;4.73;78.05
37200;BME280;23096;50.892;16.746;2023-02-03T15:09:11;98537.83;;;4.75;78.02
37200;BME280;23096;50.892;16.746;2023-02-03T15:11:43;98531.65;;;4.78;78.03
37200;BME280;23096;50.892;16.746;2023-02-03T15:16:43;98519.13;;;4.84;77.89
37200;BME280;23096;50.892;16.746;2023-02-03T15:19:16;98511.98;;;4.84;77.82